Accord, New York
Current Conditions -  °F | °C
As of 11:12 AM on Monday 26 Jan 2015 (Local Time) from KMGJ Reporting Station
Light Snow Light Snow  
Wind Chill:   Ceiling: 3700
Heat Index: 16°   Visibility: 3mi
Dew Point:   Wind: 15mph
Humidity: 71%   Direction: 30°NNE
Pressure: 30.01"   Gusts: NA
Location:  41.79°N, 74.23°W
Report Text: KMGJ 261612Z AUTO 03013KT 3SM -SN BKN037 OVC045 M09/M13 A3001 RMK AO2 P0000 T10891133 TSNO
Loading
Personal Weather Stations






























Interactive Weather Map New forecast layout! Learn more

10-Day Weather Forecast

Advertisements
Track Severe Weather on mobile